Time;durP1;ratioP1;P1;durP2;ratioP2;P2;SDS_P1;SDS_P2;PMS_P1;PMS_P2;Temp;Humidity;BMP_temperature;BMP_pressure;BME280_temperature;BME280_humidity;BME280_pressure;Samples;Min_cycle;Max_cycle;Signal;HPM_P1;HPM_P2
2021/05/25 00:00:25;;;;;;;1.10;0.77;;;21.50;54.00;;;;;;5037837;28;20106;-55
2021/05/25 00:02:53;;;;;;;1.38;0.60;;;21.50;54.00;;;;;;5052716;28;20396;-57
2021/05/25 00:05:30;;;;;;;0.95;0.60;;;21.40;53.90;;;;;;5036017;28;20068;-56
2021/05/25 00:07:58;;;;;;;1.27;0.70;;;21.40;53.90;;;;;;5041395;28;20041;-52
2021/05/25 00:10:31;;;;;;;1.38;0.70;;;21.50;54.10;;;;;;5034030;28;20050;-56
2021/05/25 00:13:00;;;;;;;1.33;0.60;;;21.40;54.00;;;;;;5035246;28;20045;-55
2021/05/25 00:15:30;;;;;;;1.10;0.60;;;21.50;54.10;;;;;;5034824;28;20053;-56
2021/05/25 00:17:57;;;;;;;0.68;0.63;;;21.50;54.00;;;;;;5052536;28;20041;-55
2021/05/25 00:20:26;;;;;;;1.10;0.63;;;21.40;54.00;;;;;;5033900;28;20056;-56
2021/05/25 00:22:54;;;;;;;0.77;0.60;;;21.40;54.00;;;;;;5052844;28;20053;-55
2021/05/25 00:25:22;;;;;;;1.00;0.63;;;21.40;54.00;;;;;;5053604;28;20455;-55
2021/05/25 00:27:52;;;;;;;1.27;0.68;;;21.40;54.00;;;;;;5038880;28;20497;-56
2021/05/25 00:30:21;;;;;;;1.52;0.70;;;21.40;53.90;;;;;;5051046;28;20053;-55
2021/05/25 00:32:49;;;;;;;1.02;0.73;;;21.50;54.00;;;;;;5051955;28;20048;-55
2021/05/25 00:35:17;;;;;;;0.80;0.57;;;21.40;53.90;;;;;;5053493;28;20128;-52
2021/05/25 00:37:45;;;;;;;1.00;0.50;;;21.40;53.90;;;;;;5040805;28;20050;-56
2021/05/25 00:40:14;;;;;;;0.68;0.57;;;21.40;53.90;;;;;;5047613;28;20416;-55
2021/05/25 00:42:45;;;;;;;1.00;0.68;;;21.40;53.90;;;;;;5052027;28;20057;-54
2021/05/25 00:45:15;;;;;;;1.73;0.60;;;21.50;54.00;;;;;;5052313;28;20040;-56
2021/05/25 00:47:43;;;;;;;0.82;0.60;;;21.40;53.90;;;;;;5050673;28;20084;-56
2021/05/25 00:50:13;;;;;;;0.82;0.57;;;21.40;54.30;;;;;;5042784;28;20053;-55
2021/05/25 00:52:42;;;;;;;1.02;0.65;;;21.40;53.90;;;;;;5035355;28;20137;-55
2021/05/25 00:55:22;;;;;;;2.78;0.60;;;21.40;53.90;;;;;;5042760;28;20053;-56
2021/05/25 00:57:51;;;;;;;1.05;0.70;;;21.40;53.90;;;;;;5043432;28;20052;-55
2021/05/25 01:00:25;;;;;;;1.17;0.55;;;21.40;54.00;;;;;;5035742;28;20053;-54
2021/05/25 01:02:52;;;;;;;0.90;0.70;;;21.40;53.90;;;;;;5043602;28;20485;-55
2021/05/25 01:05:19;;;;;;;2.28;0.68;;;21.40;54.00;;;;;;5052043;28;20053;-56
2021/05/25 01:07:47;;;;;;;0.85;0.70;;;21.40;54.00;;;;;;5035953;28;20152;-56
2021/05/25 01:10:16;;;;;;;1.25;0.70;;;21.40;54.00;;;;;;5041088;28;20052;-56
2021/05/25 01:12:53;;;;;;;1.02;0.65;;;21.40;54.00;;;;;;5065927;28;20044;-56
2021/05/25 01:15:20;;;;;;;0.93;0.40;;;21.40;54.00;;;;;;5051992;28;20098;-57
2021/05/25 01:17:48;;;;;;;0.95;0.70;;;21.40;54.00;;;;;;5053318;28;20110;-54
2021/05/25 01:20:16;;;;;;;1.92;0.60;;;21.40;54.00;;;;;;5049773;28;20045;-56
2021/05/25 01:22:43;;;;;;;1.10;0.70;;;21.40;54.10;;;;;;5036724;28;20045;-56
2021/05/25 01:25:13;;;;;;;0.90;0.57;;;21.40;54.00;;;;;;5037755;28;20106;-56
2021/05/25 01:27:41;;;;;;;0.57;0.50;;;21.40;54.00;;;;;;5051872;28;20459;-56
2021/05/25 01:30:10;;;;;;;0.47;0.47;;;21.40;54.10;;;;;;5051763;28;20053;-56
2021/05/25 01:32:37;;;;;;;1.35;0.50;;;21.40;54.10;;;;;;5050152;28;20041;-56
2021/05/25 01:35:05;;;;;;;1.10;0.68;;;21.40;54.10;;;;;;5051839;28;20041;-55
2021/05/25 01:37:32;;;;;;;1.50;0.55;;;21.40;54.10;;;;;;5050752;28;20045;-55
2021/05/25 01:40:00;;;;;;;2.38;1.05;;;21.40;54.00;;;;;;5050560;28;20045;-55
2021/05/25 01:42:36;;;;;;;0.50;0.40;;;21.40;54.10;;;;;;5035014;28;20050;-53
2021/05/25 01:45:13;;;;;;;0.70;0.63;;;21.40;54.10;;;;;;5051694;28;20114;-53
2021/05/25 01:47:40;;;;;;;0.57;0.47;;;21.40;54.10;;;;;;5051949;28;20053;-56
2021/05/25 01:50:14;;;;;;;0.80;0.50;;;21.40;54.10;;;;;;5051986;28;20060;-55
2021/05/25 01:52:53;;;;;;;1.40;0.50;;;21.40;54.10;;;;;;5033736;28;20054;-56
2021/05/25 01:55:40;;;;;;;1.58;0.50;;;21.40;54.10;;;;;;5049249;28;20054;-55
2021/05/25 01:58:15;;;;;;;0.50;0.50;;;21.40;54.70;;;;;;5051061;28;20052;-52
2021/05/25 02:00:57;;;;;;;1.35;0.45;;;21.40;54.70;;;;;;5053909;28;20060;-57
2021/05/25 02:03:25;;;;;;;1.90;0.45;;;21.40;54.10;;;;;;5038250;28;20052;-53
2021/05/25 02:05:53;;;;;;;0.90;0.60;;;21.40;54.10;;;;;;5037060;28;20052;-54
2021/05/25 02:08:21;;;;;;;0.60;0.40;;;21.40;54.10;;;;;;5054818;28;20170;-57
2021/05/25 02:10:53;;;;;;;3.25;0.50;;;21.40;54.10;;;;;;5037721;28;20099;-55
2021/05/25 02:13:26;;;;;;;0.55;0.45;;;21.40;54.10;;;;;;5053973;28;20072;-55
2021/05/25 02:15:56;;;;;;;0.60;0.50;;;21.40;54.10;;;;;;5038066;28;20053;-56
2021/05/25 02:18:26;;;;;;;0.70;0.50;;;21.40;54.10;;;;;;5038970;28;20041;-57
2021/05/25 02:20:56;;;;;;;1.48;0.70;;;21.40;54.10;;;;;;5053951;28;20168;-55
2021/05/25 02:23:25;;;;;;;0.90;0.45;;;21.40;54.10;;;;;;5055646;28;20056;-56
2021/05/25 02:25:53;;;;;;;0.70;0.50;;;21.40;54.10;;;;;;5053369;28;20083;-54
2021/05/25 02:28:20;;;;;;;0.52;0.40;;;21.40;54.10;;;;;;5053356;28;20103;-56
2021/05/25 02:30:47;;;;;;;0.50;0.40;;;21.40;54.10;;;;;;5055534;28;20068;-55
2021/05/25 02:33:16;;;;;;;0.40;0.40;;;21.40;54.10;;;;;;5041699;28;20398;-54
2021/05/25 02:35:44;;;;;;;0.52;0.40;;;21.40;54.10;;;;;;5048561;28;20048;-57
2021/05/25 02:38:13;;;;;;;1.05;0.50;;;21.40;54.10;;;;;;5054607;28;20045;-55
2021/05/25 02:40:43;;;;;;;1.15;0.63;;;21.40;54.10;;;;;;5047117;28;20554;-55
2021/05/25 02:43:11;;;;;;;1.42;0.30;;;21.40;54.10;;;;;;5054488;28;20049;-53
2021/05/25 02:45:38;;;;;;;1.05;0.50;;;21.40;54.10;;;;;;5046376;28;20497;-56
2021/05/25 02:48:06;;;;;;;1.00;0.50;;;21.40;54.20;;;;;;5045858;28;20049;-56
2021/05/25 02:50:34;;;;;;;0.55;0.43;;;21.40;54.10;;;;;;5054319;28;20110;-57
2021/05/25 02:53:01;;;;;;;0.82;0.35;;;21.30;54.00;;;;;;5053844;28;20052;-56
2021/05/25 02:55:33;;;;;;;0.57;0.50;;;21.30;54.10;;;;;;5049575;28;20493;-57
2021/05/25 02:58:02;;;;;;;0.50;0.40;;;21.30;54.10;;;;;;5037659;28;20049;-57
2021/05/25 03:00:42;;;;;;;0.40;0.40;;;21.40;54.10;;;;;;5042089;28;20037;-56
2021/05/25 03:03:11;;;;;;;0.63;0.60;;;21.40;54.10;;;;;;5053743;28;20041;-56
2021/05/25 03:05:40;;;;;;;0.60;0.50;;;21.30;54.10;;;;;;5053457;28;20114;-55
2021/05/25 03:08:09;;;;;;;0.32;0.30;;;21.40;54.10;;;;;;5050085;28;20052;-55
2021/05/25 03:10:38;;;;;;;0.30;0.30;;;21.40;54.70;;;;;;5038297;28;20095;-56
2021/05/25 03:13:06;;;;;;;0.60;0.50;;;21.30;54.10;;;;;;5040933;28;20501;-57
2021/05/25 03:15:40;;;;;;;0.50;0.50;;;21.40;54.10;;;;;;5054843;28;20053;-56
2021/05/25 03:18:09;;;;;;;0.47;0.40;;;21.40;54.10;;;;;;5054666;28;20566;-54
2021/05/25 03:20:37;;;;;;;0.80;0.50;;;21.30;54.10;;;;;;5053318;28;20041;-56
2021/05/25 03:23:06;;;;;;;1.17;0.30;;;21.40;54.10;;;;;;5052175;28;20049;-57
2021/05/25 03:25:33;;;;;;;1.15;0.45;;;21.40;54.10;;;;;;5052297;28;20413;-56
2021/05/25 03:28:01;;;;;;;0.60;0.40;;;21.30;54.10;;;;;;5053597;28;20427;-56
2021/05/25 03:30:29;;;;;;;0.95;0.40;;;21.40;54.10;;;;;;5052420;28;20057;-55
2021/05/25 03:32:58;;;;;;;0.50;0.40;;;21.30;54.10;;;;;;5054105;28;20048;-57
2021/05/25 03:35:26;;;;;;;0.32;0.32;;;21.30;54.10;;;;;;5036063;28;20088;-56
2021/05/25 03:37:54;;;;;;;0.63;0.50;;;21.30;54.10;;;;;;5036676;28;20056;-57
2021/05/25 03:40:22;;;;;;;0.93;0.50;;;21.40;54.10;;;;;;5037318;28;20119;-57
2021/05/25 03:42:51;;;;;;;1.05;0.50;;;21.40;54.10;;;;;;5054598;28;20122;-56
2021/05/25 03:45:19;;;;;;;1.52;0.70;;;21.30;54.00;;;;;;5052866;28;20140;-56
2021/05/25 03:47:46;;;;;;;0.82;0.45;;;21.30;54.00;;;;;;5054378;28;20106;-58
2021/05/25 03:50:14;;;;;;;1.20;0.40;;;21.30;54.00;;;;;;5053291;28;20099;-55
2021/05/25 03:52:47;;;;;;;1.70;0.52;;;21.30;54.00;;;;;;5053867;28;20126;-55
2021/05/25 04:01:02;;;;;;;0.30;0.20;;;21.30;53.90;;;;;;5036376;28;20045;-56
2021/05/25 04:03:30;;;;;;;0.50;0.47;;;21.30;53.90;;;;;;5037638;28;20045;-56
2021/05/25 04:05:57;;;;;;;0.57;0.40;;;21.30;53.80;;;;;;5041204;28;20076;-52
2021/05/25 04:08:24;;;;;;;0.50;0.40;;;21.30;53.80;;;;;;5050814;28;20140;-54
2021/05/25 04:10:52;;;;;;;0.73;0.57;;;21.30;53.80;;;;;;5039371;28;20060;-56
2021/05/25 04:13:19;;;;;;;0.85;0.45;;;21.30;53.70;;;;;;5062847;28;20578;-53
2021/05/25 04:15:48;;;;;;;0.75;0.50;;;21.30;53.70;;;;;;5052270;28;20071;-57
2021/05/25 04:18:16;;;;;;;0.55;0.30;;;21.30;53.70;;;;;;5052653;28;20510;-56
2021/05/25 04:20:43;;;;;;;0.70;0.57;;;21.30;54.30;;;;;;5051368;28;20099;-57
2021/05/25 04:23:11;;;;;;;0.60;0.52;;;21.30;53.70;;;;;;5051017;28;20043;-56
2021/05/25 04:25:38;;;;;;;0.80;0.45;;;21.30;53.70;;;;;;5053374;28;20052;-58
2021/05/25 04:28:06;;;;;;;0.85;0.57;;;21.30;53.60;;;;;;5051730;28;20508;-57
2021/05/25 04:30:33;;;;;;;0.75;0.40;;;21.30;53.60;;;;;;5052453;28;20048;-55
2021/05/25 04:33:01;;;;;;;0.60;0.35;;;21.40;53.70;;;;;;5046916;28;20041;-56
2021/05/25 04:35:28;;;;;;;0.85;0.47;;;21.40;53.60;;;;;;5035608;28;20042;-57
2021/05/25 04:37:57;;;;;;;0.90;0.40;;;21.40;53.60;;;;;;5039625;28;20102;-57
2021/05/25 04:40:26;;;;;;;0.50;0.50;;;21.40;53.60;;;;;;5050937;28;20132;-57
2021/05/25 04:42:53;;;;;;;0.93;0.60;;;21.40;53.60;;;;;;5049986;28;20048;-56
2021/05/25 04:45:21;;;;;;;1.35;0.63;;;21.40;53.50;;;;;;5035760;28;20049;-56
2021/05/25 04:47:48;;;;;;;0.35;0.30;;;21.40;53.50;;;;;;5036316;28;20048;-56
2021/05/25 04:50:16;;;;;;;0.90;0.45;;;21.40;53.50;;;;;;5052112;28;20506;-57
2021/05/25 04:52:43;;;;;;;0.77;0.45;;;21.40;53.50;;;;;;5034443;28;20059;-57
2021/05/25 04:55:13;;;;;;;0.40;0.40;;;21.40;53.50;;;;;;5034619;28;20148;-57
2021/05/25 04:57:41;;;;;;;0.93;0.50;;;21.40;53.40;;;;;;5051787;28;20460;-56
2021/05/25 05:00:11;;;;;;;0.63;0.40;;;21.40;53.40;;;;;;5051946;28;20041;-57
2021/05/25 05:02:38;;;;;;;0.82;0.40;;;21.40;53.40;;;;;;5035120;28;20045;-56
2021/05/25 05:05:07;;;;;;;0.50;0.38;;;21.40;53.30;;;;;;5052825;28;20456;-54
2021/05/25 05:07:34;;;;;;;0.60;0.40;;;21.40;53.30;;;;;;5052600;28;20036;-56
2021/05/25 05:10:02;;;;;;;0.40;0.32;;;21.40;53.20;;;;;;5037783;28;20050;-56
2021/05/25 05:12:30;;;;;;;0.90;0.50;;;21.40;53.20;;;;;;5049150;28;20044;-56
2021/05/25 05:14:58;;;;;;;0.57;0.32;;;21.40;53.20;;;;;;5051939;28;20132;-55
2021/05/25 05:17:27;;;;;;;0.63;0.50;;;21.40;53.10;;;;;;5053075;28;20107;-57
2021/05/25 05:19:54;;;;;;;0.35;0.35;;;21.40;53.10;;;;;;5053121;28;20386;-54
2021/05/25 05:22:22;;;;;;;0.57;0.35;;;21.40;53.10;;;;;;5052976;28;20359;-57
2021/05/25 05:24:49;;;;;;;0.88;0.40;;;21.40;53.70;;;;;;5052872;28;20052;-56
2021/05/25 05:27:20;;;;;;;1.23;0.50;;;21.40;53.00;;;;;;5044472;28;20053;-57
2021/05/25 05:29:51;;;;;;;2.15;0.60;;;21.40;53.00;;;;;;5043930;28;20076;-55
2021/05/25 05:32:19;;;;;;;0.90;0.40;;;21.40;52.90;;;;;;5051839;28;20049;-55
2021/05/25 05:34:47;;;;;;;1.55;0.63;;;21.40;52.90;;;;;;5053471;28;20512;-56
2021/05/25 05:37:14;;;;;;;1.13;0.43;;;21.40;52.80;;;;;;5061360;28;20044;-57
2021/05/25 05:39:43;;;;;;;2.22;0.40;;;21.40;52.80;;;;;;5061936;28;20505;-57
2021/05/25 05:42:11;;;;;;;0.50;0.47;;;21.40;52.80;;;;;;5046775;28;20068;-55
2021/05/25 05:44:39;;;;;;;1.05;0.60;;;21.40;52.70;;;;;;5041355;28;20037;-56
2021/05/25 05:47:06;;;;;;;0.80;0.30;;;21.40;52.70;;;;;;5056039;28;20059;-55
2021/05/25 05:49:33;;;;;;;1.15;0.60;;;21.50;52.70;;;;;;5054171;28;20053;-53
2021/05/25 05:52:00;;;;;;;1.38;0.50;;;21.50;52.60;;;;;;5039578;28;20071;-55
2021/05/25 05:54:28;;;;;;;0.50;0.38;;;21.50;52.60;;;;;;5055130;28;20049;-57
2021/05/25 05:56:55;;;;;;;1.40;0.52;;;21.50;52.60;;;;;;5036502;28;20486;-57
2021/05/25 05:59:22;;;;;;;0.77;0.55;;;21.50;52.50;;;;;;5038439;28;20041;-58
2021/05/25 06:01:49;;;;;;;1.27;0.50;;;21.50;52.50;;;;;;5054902;28;20087;-58
2021/05/25 06:04:16;;;;;;;1.88;0.63;;;21.50;52.40;;;;;;5055095;28;20453;-56
2021/05/25 06:06:47;;;;;;;2.10;0.50;;;21.50;52.40;;;;;;5042978;28;20483;-55
2021/05/25 06:09:15;;;;;;;0.55;0.50;;;21.50;52.40;;;;;;5038552;28;20053;-58
2021/05/25 06:11:42;;;;;;;0.75;0.52;;;21.50;52.30;;;;;;5054318;28;20424;-57
2021/05/25 06:14:10;;;;;;;1.52;0.60;;;21.50;52.20;;;;;;5042107;28;20053;-56
2021/05/25 06:16:37;;;;;;;0.98;0.50;;;21.50;52.20;;;;;;5052662;28;20458;-57
2021/05/25 06:19:04;;;;;;;1.88;0.82;;;21.50;52.20;;;;;;5055186;28;20559;-57
2021/05/25 06:21:31;;;;;;;0.52;0.50;;;21.50;52.20;;;;;;5054679;28;20041;-58
2021/05/25 06:23:58;;;;;;;1.60;0.70;;;21.50;52.10;;;;;;5053596;28;20047;-54
2021/05/25 06:26:25;;;;;;;1.02;0.52;;;21.50;52.00;;;;;;5045058;28;20060;-56
2021/05/25 06:28:52;;;;;;;0.45;0.40;;;21.50;52.10;;;;;;5047750;28;20049;-56
2021/05/25 06:31:20;;;;;;;1.40;0.63;;;21.50;52.00;;;;;;5054233;28;20110;-56
2021/05/25 06:33:47;;;;;;;0.50;0.40;;;21.50;52.00;;;;;;5046566;28;20270;-55
2021/05/25 06:36:14;;;;;;;1.17;0.38;;;21.60;52.00;;;;;;5043849;28;20451;-57
2021/05/25 06:38:42;;;;;;;1.35;0.60;;;21.60;52.00;;;;;;5049388;28;20077;-57
2021/05/25 06:41:09;;;;;;;0.85;0.65;;;21.60;52.00;;;;;;5041957;28;20427;-58
2021/05/25 06:43:36;;;;;;;1.10;0.40;;;21.60;51.90;;;;;;5051591;28;20452;-56
2021/05/25 06:46:05;;;;;;;0.82;0.50;;;21.60;51.90;;;;;;5039103;28;20489;-57
2021/05/25 06:48:33;;;;;;;0.60;0.40;;;21.60;51.80;;;;;;5054316;28;20045;-57
2021/05/25 06:51:04;;;;;;;0.85;0.40;;;21.60;51.80;;;;;;5054622;28;20102;-56
2021/05/25 06:53:31;;;;;;;0.90;0.47;;;21.60;51.80;;;;;;5037499;28;20045;-56
2021/05/25 06:55:58;;;;;;;0.68;0.40;;;21.60;51.80;;;;;;5038123;28;20056;-57
2021/05/25 06:58:25;;;;;;;0.50;0.50;;;21.60;51.80;;;;;;5054378;28;20052;-57
2021/05/25 07:00:53;;;;;;;0.90;0.50;;;21.60;51.70;;;;;;5036809;28;20049;-57
2021/05/25 07:03:20;;;;;;;0.68;0.52;;;21.60;51.70;;;;;;5039200;28;20095;-55
2021/05/25 07:05:47;;;;;;;2.35;0.47;;;21.60;51.60;;;;;;5036720;28;20072;-57
2021/05/25 07:08:14;;;;;;;1.05;0.68;;;21.60;51.60;;;;;;5054003;28;20045;-57
2021/05/25 07:10:41;;;;;;;2.72;0.70;;;21.60;51.50;;;;;;5053799;28;20448;-56
2021/05/25 07:13:11;;;;;;;0.70;0.40;;;21.60;51.50;;;;;;5053836;28;20122;-56
2021/05/25 07:15:38;;;;;;;0.57;0.30;;;21.60;51.50;;;;;;5054051;28;20053;-58
2021/05/25 07:18:06;;;;;;;0.68;0.38;;;21.60;51.50;;;;;;5053423;28;20107;-57
2021/05/25 07:20:33;;;;;;;2.05;0.57;;;21.60;51.40;;;;;;5043296;28;20516;-58
2021/05/25 07:23:00;;;;;;;1.42;0.80;;;21.60;51.40;;;;;;5047626;28;20045;-58
2021/05/25 07:25:28;;;;;;;0.95;0.55;;;21.60;51.30;;;;;;5052268;28;20099;-56
2021/05/25 07:27:57;;;;;;;0.90;0.45;;;21.60;51.30;;;;;;5053375;28;20090;-58
2021/05/25 07:30:25;;;;;;;1.33;0.60;;;21.70;51.30;;;;;;5047320;28;20050;-57
2021/05/25 07:32:53;;;;;;;1.85;0.60;;;21.70;51.30;;;;;;5044853;28;20041;-57
2021/05/25 07:35:20;;;;;;;1.25;0.57;;;21.70;51.20;;;;;;5047343;28;20053;-57
2021/05/25 07:37:47;;;;;;;0.60;0.50;;;21.70;51.20;;;;;;5036947;28;20042;-57
2021/05/25 07:40:16;;;;;;;0.75;0.40;;;21.70;51.10;;;;;;5042186;28;20511;-56
2021/05/25 07:42:45;;;;;;;1.98;0.63;;;21.70;51.10;;;;;;5049338;28;20076;-56
2021/05/25 07:45:14;;;;;;;1.25;0.60;;;21.70;51.00;;;;;;5037001;28;20092;-55
2021/05/25 07:47:42;;;;;;;2.00;0.40;;;21.70;50.90;;;;;;5037764;28;20052;-56
2021/05/25 07:50:13;;;;;;;2.28;0.70;;;21.70;50.90;;;;;;5051395;28;20049;-57
2021/05/25 07:52:45;;;;;;;0.43;0.40;;;21.80;50.90;;;;;;5037563;28;20049;-55
2021/05/25 07:55:21;;;;;;;0.60;0.43;;;21.80;50.90;;;;;;5037651;28;20051;-56
2021/05/25 07:57:49;;;;;;;0.93;0.50;;;21.80;50.90;;;;;;5037760;28;20040;-56
2021/05/25 08:00:17;;;;;;;1.30;0.60;;;21.80;50.90;;;;;;5051692;28;20063;-56
2021/05/25 08:02:44;;;;;;;1.98;0.68;;;21.80;50.90;;;;;;5051329;28;20095;-57
2021/05/25 08:05:14;;;;;;;1.02;0.57;;;21.80;51.40;;;;;;5053500;28;20099;-57
2021/05/25 08:07:41;;;;;;;1.23;0.60;;;21.80;51.40;;;;;;5051133;28;20045;-57
2021/05/25 08:10:12;;;;;;;1.45;0.50;;;21.80;50.80;;;;;;5052814;28;20081;-57
2021/05/25 08:12:40;;;;;;;1.15;0.55;;;21.80;50.80;;;;;;5035531;28;20057;-56
2021/05/25 08:15:09;;;;;;;1.08;0.60;;;21.80;50.70;;;;;;5053147;28;20049;-55
2021/05/25 08:18:05;;;;;;;0.63;0.50;;;21.80;50.70;;;;;;5037244;28;20053;-57
2021/05/25 08:20:29;;;;;;;1.13;0.52;;;21.80;50.70;;;;;;5034654;28;20049;-56
2021/05/25 08:23:16;;;;;;;1.02;0.50;;;21.80;50.70;;;;;;5035540;28;20106;-56
2021/05/25 08:25:43;;;;;;;1.77;0.60;;;21.80;50.50;;;;;;5052784;28;20052;-57
2021/05/25 08:28:13;;;;;;;1.38;0.50;;;21.80;50.50;;;;;;5067375;28;20052;-58
2021/05/25 08:30:42;;;;;;;1.10;0.60;;;21.80;50.40;;;;;;5033998;28;20427;-57
2021/05/25 08:33:12;;;;;;;3.42;0.60;;;21.90;50.50;;;;;;5052296;28;20055;-56
2021/05/25 08:35:42;;;;;;;1.23;0.82;;;21.90;50.40;;;;;;5053276;28;20084;-57
2021/05/25 08:38:13;;;;;;;0.70;0.30;;;21.90;50.40;;;;;;5035739;28;20045;-57
2021/05/25 08:40:41;;;;;;;2.83;0.47;;;21.90;50.30;;;;;;5050140;28;20049;-57
2021/05/25 08:43:09;;;;;;;1.77;0.55;;;21.90;50.20;;;;;;5051937;28;20049;-57
2021/05/25 08:45:37;;;;;;;0.93;0.50;;;22.00;50.20;;;;;;5038144;28;20049;-57
2021/05/25 08:48:05;;;;;;;1.15;0.60;;;22.00;50.10;;;;;;5048832;28;20556;-57
2021/05/25 08:50:50;;;;;;;0.77;0.50;;;22.00;50.10;;;;;;5037735;28;20053;-58
2021/05/25 08:53:17;;;;;;;1.35;0.63;;;22.00;49.90;;;;;;5035145;28;20681;-57
2021/05/25 08:55:50;;;;;;;1.13;0.50;;;22.00;49.90;;;;;;5048648;28;20048;-55
2021/05/25 08:58:20;;;;;;;1.77;0.73;;;22.00;49.90;;;;;;5038653;28;20045;-55
2021/05/25 09:00:48;;;;;;;1.00;0.40;;;22.00;49.90;;;;;;5047688;28;20051;-57
2021/05/25 09:03:16;;;;;;;2.03;0.80;;;22.00;49.90;;;;;;5051726;28;20401;-55
2021/05/25 09:06:09;;;;;;;2.15;0.80;;;22.00;49.80;;;;;;5040692;28;20409;-57
2021/05/25 09:08:37;;;;;;;3.92;0.60;;;22.10;49.90;;;;;;5051071;28;20049;-58
2021/05/25 09:11:10;;;;;;;2.08;0.60;;;22.10;49.70;;;;;;5044186;28;20049;-57
2021/05/25 09:13:37;;;;;;;1.52;0.47;;;22.10;49.60;;;;;;5051876;28;20049;-57
2021/05/25 09:16:08;;;;;;;3.97;0.60;;;22.10;49.50;;;;;;5054697;28;20045;-57
2021/05/25 09:18:45;;;;;;;1.20;0.57;;;22.20;49.50;;;;;;5056988;28;20044;-57
2021/05/25 09:21:29;;;;;;;1.30;0.52;;;22.20;49.50;;;;;;5054547;28;20048;-54
2021/05/25 09:23:56;;;;;;;1.10;0.60;;;22.20;49.40;;;;;;5055648;28;20456;-57
2021/05/25 09:26:34;;;;;;;2.65;0.38;;;22.20;49.30;;;;;;5045221;28;20493;-58
2021/05/25 09:29:07;;;;;;;4.07;0.70;;;22.20;49.20;;;;;;5051880;28;20527;-58
2021/05/25 09:31:47;;;;;;;2.00;0.80;;;22.20;49.20;;;;;;5046210;28;20041;-57
2021/05/25 09:34:20;;;;;;;2.00;0.70;;;22.20;49.10;;;;;;5053285;28;20542;-56
2021/05/25 09:37:08;;;;;;;2.03;0.80;;;22.20;49.10;;;;;;5056649;28;20056;-58
2021/05/25 09:39:40;;;;;;;1.30;0.55;;;22.20;49.10;;;;;;5055699;28;20551;-56
2021/05/25 09:42:10;;;;;;;1.08;0.60;;;22.20;49.10;;;;;;5040770;28;20041;-58
2021/05/25 09:44:55;;;;;;;0.93;0.50;;;22.20;49.10;;;;;;5039318;28;20045;-58
2021/05/25 09:47:38;;;;;;;1.48;0.65;;;22.20;49.10;;;;;;5054656;28;20079;-55
2021/05/25 09:50:15;;;;;;;1.50;0.57;;;22.20;49.10;;;;;;5040287;28;20057;-58
2021/05/25 09:53:03;;;;;;;0.88;0.73;;;22.20;49.10;;;;;;5055929;28;20463;-58
2021/05/25 09:55:32;;;;;;;2.10;0.50;;;22.20;49.00;;;;;;5054476;28;20417;-58
2021/05/25 09:57:59;;;;;;;1.05;0.50;;;22.20;49.00;;;;;;5055183;28;20041;-56
2021/05/25 10:00:35;;;;;;;1.33;0.60;;;22.20;48.90;;;;;;5037757;28;20052;-57
2021/05/25 10:03:16;;;;;;;1.70;0.70;;;22.20;48.90;;;;;;5053991;28;20493;-58
2021/05/25 10:05:49;;;;;;;1.80;0.63;;;22.20;48.90;;;;;;5038231;28;20057;-58
2021/05/25 10:08:17;;;;;;;3.28;0.52;;;22.20;48.80;;;;;;5047616;28;20049;-56
2021/05/25 10:10:45;;;;;;;1.88;0.60;;;22.20;48.80;;;;;;5054192;28;20412;-58
2021/05/25 10:13:13;;;;;;;1.88;0.40;;;22.20;48.70;;;;;;5056052;28;20044;-58
2021/05/25 10:15:49;;;;;;;1.15;0.65;;;22.20;48.70;;;;;;5056044;28;20106;-58
2021/05/25 10:18:34;;;;;;;1.10;0.60;;;22.30;48.70;;;;;;5054718;28;20048;-57
2021/05/25 10:21:12;;;;;;;0.82;0.50;;;22.20;48.60;;;;;;5052089;28;20485;-58
2021/05/25 10:23:42;;;;;;;0.93;0.43;;;22.30;48.60;;;;;;5054714;28;20463;-58
2021/05/25 10:26:16;;;;;;;1.48;0.75;;;22.30;48.50;;;;;;5053807;28;20056;-58
2021/05/25 10:28:54;;;;;;;1.85;0.50;;;22.30;48.50;;;;;;5054752;28;20059;-59
2021/05/25 10:31:43;;;;;;;1.30;0.65;;;22.30;48.30;;;;;;5054004;28;20049;-58
2021/05/25 10:34:23;;;;;;;3.15;0.52;;;22.30;48.20;;;;;;5036149;28;20118;-58
2021/05/25 10:36:53;;;;;;;1.05;0.65;;;22.30;48.20;;;;;;5053531;28;20073;-58
2021/05/25 10:39:40;;;;;;;1.77;0.65;;;22.30;48.20;;;;;;5054678;28;20053;-56
2021/05/25 10:44:49;;;;;;;1.65;0.55;;;22.30;48.20;;;;;;5038114;28;20186;-58
2021/05/25 10:47:26;;;;;;;1.13;0.60;;;22.30;48.20;;;;;;5038362;28;20071;-57
2021/05/25 10:50:24;;;;;;;1.55;0.50;;;22.30;48.20;;;;;;5038182;28;20044;-57
2021/05/25 10:53:00;;;;;;;1.80;0.50;;;22.30;48.20;;;;;;5044143;28;20501;-57
2021/05/25 10:55:35;;;;;;;1.67;0.57;;;22.30;48.20;;;;;;5055057;28;20047;-58
2021/05/25 10:58:18;;;;;;;1.85;0.60;;;22.30;48.20;;;;;;5054181;28;20045;-58
2021/05/25 11:00:46;;;;;;;0.70;0.40;;;22.30;48.20;;;;;;5062017;28;20044;-57
2021/05/25 11:03:14;;;;;;;1.23;0.52;;;22.30;48.10;;;;;;5056964;28;20056;-54
2021/05/25 11:05:49;;;;;;;1.17;0.65;;;22.30;48.00;;;;;;5038915;28;20504;-56
2021/05/25 11:08:20;;;;;;;0.63;0.55;;;22.30;48.00;;;;;;5054793;28;20567;-57
2021/05/25 11:10:57;;;;;;;1.52;0.60;;;22.30;48.00;;;;;;5047721;28;20049;-56
2021/05/25 11:13:26;;;;;;;0.80;0.50;;;22.30;48.00;;;;;;5043811;28;20068;-57
2021/05/25 11:16:31;;;;;;;1.77;0.60;;;22.30;47.90;;;;;;5053023;28;20534;-56
2021/05/25 11:19:09;;;;;;;0.43;0.30;;;22.30;47.90;;;;;;5043961;28;20037;-56
2021/05/25 11:24:32;;;;;;;0.93;0.50;;;22.30;47.90;;;;;;5038519;28;20080;-55
2021/05/25 11:27:26;;;;;;;1.05;0.70;;;22.30;47.80;;;;;;5038086;28;20057;-57
2021/05/25 11:30:04;;;;;;;1.33;0.50;;;22.30;47.80;;;;;;5053504;28;20080;-57
2021/05/25 11:32:52;;;;;;;1.58;0.63;;;22.30;47.80;;;;;;5053232;28;20049;-58
2021/05/25 11:35:22;;;;;;;1.52;0.50;;;22.30;47.80;;;;;;5052284;28;20060;-58
2021/05/25 11:37:54;;;;;;;1.67;0.60;;;22.30;47.90;;;;;;5037211;28;20042;-56
2021/05/25 11:40:23;;;;;;;1.58;0.60;;;22.30;48.00;;;;;;5035826;28;20063;-56
2021/05/25 11:42:50;;;;;;;0.40;0.40;;;22.30;47.90;;;;;;5053318;28;20123;-57
2021/05/25 11:45:22;;;;;;;1.80;0.50;;;22.30;48.00;;;;;;5038694;28;20064;-57
2021/05/25 11:47:59;;;;;;;2.70;0.68;;;22.20;47.90;;;;;;5052981;28;20060;-56
2021/05/25 11:50:29;;;;;;;0.90;0.55;;;22.30;48.00;;;;;;5053886;28;20049;-57
2021/05/25 11:53:01;;;;;;;0.90;0.40;;;22.30;47.90;;;;;;5038290;28;20063;-58
2021/05/25 11:55:29;;;;;;;0.95;0.50;;;22.30;47.90;;;;;;5051409;28;20086;-55
2021/05/25 11:57:58;;;;;;;1.52;0.40;;;22.30;47.80;;;;;;5052767;28;20120;-56
2021/05/25 12:00:28;;;;;;;0.40;0.40;;;22.30;47.80;;;;;;5054176;28;20465;-53
2021/05/25 12:03:00;;;;;;;1.27;0.50;;;22.20;47.80;;;;;;5052657;28;20489;-57
2021/05/25 12:05:32;;;;;;;1.38;0.60;;;22.20;47.80;;;;;;5040239;28;20046;-57
2021/05/25 12:08:04;;;;;;;0.60;0.32;;;22.30;47.90;;;;;;5050692;28;20378;-54
2021/05/25 12:10:39;;;;;;;1.45;0.70;;;22.30;47.90;;;;;;5041950;28;20045;-57
2021/05/25 12:13:12;;;;;;;1.48;0.68;;;22.30;47.90;;;;;;5037335;28;20456;-55
2021/05/25 12:15:47;;;;;;;1.60;0.70;;;22.30;47.80;;;;;;5046820;28;20102;-56
2021/05/25 12:18:16;;;;;;;1.27;0.60;;;22.30;47.80;;;;;;5053885;28;20045;-55
2021/05/25 12:20:47;;;;;;;1.13;0.65;;;22.30;47.80;;;;;;5053761;28;20448;-57
2021/05/25 12:23:17;;;;;;;3.17;0.77;;;22.30;47.80;;;;;;5053609;28;20041;-54
2021/05/25 12:25:51;;;;;;;1.25;0.50;;;22.30;47.80;;;;;;5042124;28;20053;-57
2021/05/25 12:28:24;;;;;;;1.13;0.60;;;22.30;47.80;;;;;;5047288;28;20064;-58
2021/05/25 12:30:56;;;;;;;1.23;0.50;;;22.30;47.70;;;;;;5051520;28;20136;-59
2021/05/25 12:33:26;;;;;;;2.05;0.68;;;22.30;47.80;;;;;;5052228;28;20044;-56
2021/05/25 12:36:10;;;;;;;1.60;0.57;;;22.20;47.60;;;;;;5053363;28;20053;-57
2021/05/25 12:38:37;;;;;;;1.05;0.60;;;22.20;47.70;;;;;;5041344;28;20045;-56
2021/05/25 12:41:05;;;;;;;1.00;0.43;;;22.20;47.60;;;;;;5045954;28;20049;-58
2021/05/25 12:43:37;;;;;;;1.83;0.60;;;22.20;47.70;;;;;;5044124;28;20386;-57
2021/05/25 12:46:09;;;;;;;0.70;0.40;;;22.20;47.80;;;;;;5043646;28;20099;-58
2021/05/25 12:48:39;;;;;;;1.10;0.50;;;22.20;47.80;;;;;;5051998;28;20167;-58
2021/05/25 12:51:11;;;;;;;0.73;0.52;;;22.20;47.80;;;;;;5044070;28;20053;-57
2021/05/25 12:53:53;;;;;;;1.33;0.52;;;22.10;47.70;;;;;;5035963;28;20057;-57
2021/05/25 12:56:22;;;;;;;1.13;0.52;;;22.20;47.80;;;;;;5037197;28;20084;-57
2021/05/25 12:58:52;;;;;;;2.05;0.70;;;22.10;47.70;;;;;;5035610;28;20449;-56
2021/05/25 13:01:31;;;;;;;1.48;0.50;;;22.10;47.80;;;;;;5043995;28;20067;-57
2021/05/25 13:04:06;;;;;;;1.88;0.52;;;22.10;47.80;;;;;;5052281;28;20432;-57
2021/05/25 13:07:06;;;;;;;1.58;0.63;;;22.10;47.90;;;;;;5051578;28;20403;-58
2021/05/25 13:09:41;;;;;;;2.72;0.50;;;22.10;47.80;;;;;;5047346;28;20041;-56
2021/05/25 13:12:14;;;;;;;2.22;0.63;;;22.10;47.70;;;;;;5050991;28;20465;-58
2021/05/25 13:14:42;;;;;;;1.35;0.60;;;22.20;47.70;;;;;;5041408;28;20099;-56
2021/05/25 13:17:10;;;;;;;1.20;0.68;;;22.20;47.70;;;;;;5046382;28;20048;-56